Airport View

Enter AWOS ICAO identifier for current METAR.

ex. KFNL

KLRO 262305Z AUTO 21006KT 6SM -DZ FEW048 SCT075 BKN085 17/17 A2980 RMK AO2

26 Feb 2020 23:08

Frequency: 118.625

Phone: 843-849-0438

Other Area AWOS: KCHS - KJZI - KMKS - KDYB

TAF AMD KCHS 261923Z 2619/2718 23008KT 6SM RA SCT008 BKN015 FM270100 26012KT 5SM -RA SCT020 BKN040 FM270400 30013G20KT P6SM SKC